Time;durP1;ratioP1;P1;durP2;ratioP2;P2;SDS_P1;SDS_P2;PMS_P1;PMS_P2;Temp;Humidity;BMP_temperature;BMP_pressure;BME280_temperature;BME280_humidity;BME280_pressure;Samples;Min_cycle;Max_cycle;Signal;HPM_P1;HPM_P2
2021/07/26 00:00:32;;;;;;;7.05;4.05;;;;;;;19.97;74.84;99861.22;20655683;28;20046;-70
2021/07/26 00:10:35;;;;;;;7.10;3.35;;;;;;;19.95;74.84;99857.81;20655650;28;20133;-70
2021/07/26 00:20:37;;;;;;;7.38;3.90;;;;;;;19.94;74.30;99872.06;20656014;28;20057;-70
2021/07/26 00:30:39;;;;;;;6.45;3.40;;;;;;;19.78;75.17;99863.31;20655766;28;20073;-70
2021/07/26 00:40:42;;;;;;;6.88;3.70;;;;;;;19.72;75.29;99867.22;20655158;28;20444;-70
2021/07/26 00:50:44;;;;;;;5.93;3.67;;;;;;;19.68;75.40;99871.84;20654869;28;20109;-70
2021/07/26 01:00:46;;;;;;;5.95;3.90;;;;;;;19.71;75.70;99876.13;20661452;28;20074;-71
2021/07/26 01:10:48;;;;;;;7.70;4.30;;;;;;;19.63;76.44;99879.25;20674983;28;20053;-71
2021/07/26 01:20:54;;;;;;;6.38;3.88;;;;;;;19.59;76.74;99883.00;20685630;28;20053;-71
2021/07/26 01:30:56;;;;;;;6.65;3.85;;;;;;;19.44;77.76;99883.94;20672276;28;20042;-71
2021/07/26 01:41:02;;;;;;;6.72;4.20;;;;;;;19.37;77.33;99898.56;20667050;28;20424;-72
2021/07/26 01:51:19;;;;;;;6.97;3.90;;;;;;;19.30;77.79;99892.75;20666218;28;20050;-73
2021/07/26 02:01:21;;;;;;;7.72;4.55;;;;;;;19.34;77.62;99882.81;20664662;28;20066;-71
2021/07/26 02:11:23;;;;;;;9.25;4.10;;;;;;;19.31;78.17;99888.31;20665372;28;20145;-71
2021/07/26 02:21:25;;;;;;;7.20;4.28;;;;;;;19.30;77.79;99889.25;20662533;28;20459;-73
2021/07/26 02:31:26;;;;;;;7.70;4.13;;;;;;;19.21;77.89;99909.22;20662412;28;20046;-71
2021/07/26 02:41:28;;;;;;;8.77;4.25;;;;;;;19.03;79.12;99916.47;20715388;23;20091;-81
2021/07/26 02:51:30;;;;;;;6.63;4.22;;;;;;;18.97;79.38;99922.13;20922909;28;20086;-82
2021/07/26 03:01:32;;;;;;;7.78;4.53;;;;;;;18.85;79.90;99913.09;20903783;28;20511;-82
2021/07/26 03:11:36;;;;;;;10.80;5.20;;;;;;;18.82;79.84;99918.56;20922326;28;20133;-81
2021/07/26 03:21:40;;;;;;;8.32;4.88;;;;;;;18.75;80.16;99921.66;20926227;28;20426;-82
2021/07/26 03:31:41;;;;;;;8.50;4.80;;;;;;;18.70;80.50;99930.75;20944652;28;20044;-82
2021/07/26 03:41:43;;;;;;;9.20;4.95;;;;;;;18.66;80.79;99942.41;20993158;28;20102;-81
2021/07/26 03:51:45;;;;;;;7.43;4.70;;;;;;;18.62;81.07;99932.91;20909415;28;20049;-82
2021/07/26 04:01:49;;;;;;;9.10;5.07;;;;;;;18.52;81.58;99942.34;20923048;28;20102;-81
2021/07/26 04:12:00;;;;;;;7.75;5.22;;;;;;;18.51;81.39;99948.59;20933148;28;20056;-81
2021/07/26 04:22:02;;;;;;;8.35;5.25;;;;;;;18.51;81.65;99935.34;20911401;28;20432;-81
2021/07/26 04:32:09;;;;;;;9.40;5.50;;;;;;;18.48;82.14;99945.25;20915082;28;20049;-81
2021/07/26 04:42:11;;;;;;;9.07;5.43;;;;;;;18.48;82.46;99951.41;20915978;28;20045;-81
2021/07/26 04:52:15;;;;;;;9.63;5.47;;;;;;;18.68;81.40;99953.84;20927576;28;20076;-81
2021/07/26 05:02:17;;;;;;;8.43;5.13;;;;;;;18.67;81.35;99962.69;20936839;28;20627;-81
2021/07/26 05:12:19;;;;;;;9.52;5.13;;;;;;;18.64;81.77;99973.50;20984543;28;20037;-81
2021/07/26 05:22:29;;;;;;;8.40;4.97;;;;;;;18.90;80.63;99971.19;20973333;28;20053;-81
2021/07/26 05:32:35;;;;;;;8.35;5.05;;;;;;;19.15;79.57;99983.91;20923301;28;20461;-81
2021/07/26 05:42:36;;;;;;;11.45;4.68;;;;;;;19.12;79.12;99979.63;20929611;28;20118;-81
2021/07/26 05:52:38;;;;;;;9.65;4.85;;;;;;;19.37;78.84;99980.84;20808000;22;20049;-73
2021/07/26 06:02:40;;;;;;;8.55;5.00;;;;;;;19.52;77.88;99982.59;20743616;28;20053;-73
2021/07/26 06:12:41;;;;;;;8.10;5.03;;;;;;;19.85;76.32;99989.53;20744315;28;20338;-73
2021/07/26 06:22:43;;;;;;;8.65;4.05;;;;;;;20.20;75.45;99990.88;20744515;28;20053;-73
2021/07/26 06:32:45;;;;;;;8.82;4.22;;;;;;;20.61;73.03;99992.78;20743556;28;20045;-73
2021/07/26 06:42:48;;;;;;;6.63;4.00;;;;;;;20.80;72.78;99994.25;20742262;28;20050;-73
2021/07/26 06:52:49;;;;;;;9.60;4.15;;;;;;;21.11;72.02;99995.75;20742496;28;20092;-73
2021/07/26 07:02:51;;;;;;;6.38;3.78;;;;;;;21.63;70.84;100005.63;20717324;28;20512;-73
2021/07/26 07:12:53;;;;;;;7.28;3.83;;;;;;;21.59;70.97;100012.97;20701024;28;20057;-73
2021/07/26 07:22:55;;;;;;;5.75;3.58;;;;;;;21.80;70.65;100001.81;20705661;28;20094;-72
2021/07/26 07:33:00;;;;;;;7.82;4.00;;;;;;;21.83;66.82;99996.28;20657896;28;20101;-73
2021/07/26 07:43:02;;;;;;;7.13;3.28;;;;;;;22.16;63.92;100011.78;20701784;28;20104;-72
2021/07/26 07:53:03;;;;;;;6.75;3.58;;;;;;;22.41;60.97;100009.06;20738488;28;20495;-73
2021/07/26 08:03:08;;;;;;;8.73;3.85;;;;;;;22.93;60.94;100007.16;20738264;28;20057;-73
2021/07/26 08:13:10;;;;;;;6.68;3.47;;;;;;;23.34;59.25;100016.63;20710002;28;20554;-73
2021/07/26 08:23:12;;;;;;;7.38;3.70;;;;;;;23.60;57.98;100028.84;20681042;28;20066;-73
2021/07/26 08:33:14;;;;;;;6.13;3.47;;;;;;;24.03;56.88;100025.59;20682829;28;20054;-73
2021/07/26 08:43:16;;;;;;;21.85;8.77;;;;;;;24.54;56.65;100027.84;20683696;28;20057;-73
2021/07/26 08:53:20;;;;;;;8.57;3.90;;;;;;;24.11;55.99;100036.56;20700839;28;20103;-71
2021/07/26 09:03:22;;;;;;;14.37;3.63;;;;;;;24.81;54.80;100030.13;20825844;28;20095;-71
2021/07/26 09:13:44;;;;;;;8.15;3.55;;;;;;;25.32;52.41;100025.03;20795441;28;20080;-71
2021/07/26 09:24:04;;;;;;;6.55;3.75;;;;;;;25.97;50.86;100012.44;20762742;28;20050;-71
2021/07/26 09:34:21;;;;;;;7.28;3.33;;;;;;;25.39;51.61;100019.16;20748480;28;20092;-70
2021/07/26 09:44:28;;;;;;;6.28;3.47;;;;;;;25.98;49.53;100007.91;20729882;28;20065;-71
2021/07/26 09:54:48;;;;;;;5.75;3.22;;;;;;;25.80;50.65;100008.50;20746842;28;20050;-73
2021/07/26 10:04:50;;;;;;;6.82;3.25;;;;;;;26.22;48.46;99997.72;20747239;28;20049;-73
2021/07/26 10:14:52;;;;;;;5.75;3.22;;;;;;;26.77;47.06;100000.91;20687057;28;20101;-73
2021/07/26 10:25:00;;;;;;;8.20;3.53;;;;;;;25.80;46.77;99992.41;20665143;28;20116;-73
2021/07/26 10:35:24;;;;;;;5.90;2.55;;;;;;;26.60;45.72;99985.47;20663896;28;20046;-73
2021/07/26 10:45:35;;;;;;;5.33;2.80;;;;;;;26.21;46.77;99990.66;20662879;28;20389;-73
2021/07/26 10:56:09;;;;;;;6.38;3.35;;;;;;;25.19;50.06;99996.69;20662500;28;20496;-74
2021/07/26 11:06:31;;;;;;;8.45;3.38;;;;;;;25.89;48.56;99976.50;20660206;28;20528;-74
2021/07/26 11:17:11;;;;;;;6.93;3.20;;;;;;;26.87;44.82;99968.69;20738791;28;20050;-71
2021/07/26 11:27:15;;;;;;;6.35;3.78;;;;;;;27.35;43.07;99970.59;20739924;28;20112;-74
2021/07/26 11:37:17;;;;;;;6.80;3.28;;;;;;;26.70;45.12;99975.59;20739455;28;20045;-74
2021/07/26 11:47:31;;;;;;;4.82;3.00;;;;;;;26.49;46.20;99978.34;20739242;28;20046;-74
2021/07/26 11:57:33;;;;;;;6.28;3.70;;;;;;;26.15;47.87;99967.03;20738509;28;20108;-74
2021/07/26 12:07:43;;;;;;;5.00;2.85;;;;;;;26.35;42.53;99976.03;20737337;28;20554;-73
2021/07/26 12:18:07;;;;;;;7.45;3.58;;;;;;;25.82;46.22;99984.22;20670661;28;20534;-73
2021/07/26 12:28:09;;;;;;;;;;;;;;;25.58;48.53;99977.28;20653635;28;20100;-73
2021/07/26 12:38:11;;;;;;;7.05;3.35;;;;;;;25.18;51.13;99974.41;20630804;28;19921;-73
2021/07/26 12:48:19;;;;;;;6.35;3.67;;;;;;;25.68;51.96;99958.56;20654969;28;20046;-73
2021/07/26 12:58:23;;;;;;;5.55;3.05;;;;;;;25.66;49.86;99957.84;20655687;28;20520;-73
2021/07/26 13:08:24;;;;;;;5.65;2.90;;;;;;;26.59;46.07;99959.59;20666571;28;20039;-73
2021/07/26 13:18:26;;;;;;;6.18;2.83;;;;;;;26.66;44.16;99944.63;20730527;28;20132;-73
2021/07/26 13:28:28;;;;;;;5.05;2.50;;;;;;;26.43;43.21;99959.25;20748890;28;20107;-73
2021/07/26 13:38:30;;;;;;;5.75;2.78;;;;;;;26.12;43.95;99953.91;20747902;28;20491;-73
2021/07/26 13:48:34;;;;;;;4.68;2.40;;;;;;;26.35;42.98;99952.72;20746958;28;20046;-74
2021/07/26 13:58:36;;;;;;;7.00;2.65;;;;;;;26.58;43.21;99933.72;20748824;28;20046;-74
2021/07/26 14:08:38;;;;;;;4.68;2.50;;;;;;;27.13;43.44;99941.31;20719939;28;20562;-74
2021/07/26 14:18:40;;;;;;;3.85;2.30;;;;;;;27.83;41.25;99935.56;20698869;28;20096;-74
2021/07/26 14:28:42;;;;;;;5.47;2.75;;;;;;;27.32;41.72;99942.16;20693571;28;20390;-75
2021/07/26 14:38:43;;;;;;;7.35;3.03;;;;;;;27.58;42.25;99949.63;20664664;28;20554;-75
2021/07/26 14:48:46;;;;;;;7.05;2.65;;;;;;;27.72;43.13;99946.50;20663523;28;20116;-74
2021/07/26 14:58:48;;;;;;;7.73;2.87;;;;;;;27.72;43.68;99941.13;20691712;28;20046;-73
2021/07/26 15:08:49;;;;;;;5.18;2.63;;;;;;;28.06;44.07;99937.91;20741852;28;20042;-75
2021/07/26 15:18:51;;;;;;;4.40;2.38;;;;;;;28.00;42.73;99946.56;20725382;28;20077;-75
2021/07/26 15:28:53;;;;;;;5.65;2.95;;;;;;;27.33;44.49;99938.47;20740031;28;20081;-74
2021/07/26 15:38:55;;;;;;;6.43;2.88;;;;;;;27.63;44.92;99936.59;20744601;28;20096;-73
2021/07/26 15:49:12;;;;;;;5.47;3.05;;;;;;;26.97;47.93;99928.38;20724124;28;20046;-73
2021/07/26 15:59:14;;;;;;;4.85;2.78;;;;;;;26.66;50.27;99904.34;20721747;28;20050;-74
2021/07/26 16:09:15;;;;;;;5.60;3.15;;;;;;;26.10;50.26;99896.81;20738300;28;20149;-74
2021/07/26 16:19:17;;;;;;;8.15;3.20;;;;;;;26.33;48.91;99894.78;20660052;28;20058;-73
2021/07/26 16:29:19;;;;;;;5.20;2.95;;;;;;;26.15;51.18;99921.41;20656845;28;20503;-74
2021/07/26 16:39:21;;;;;;;7.22;3.00;;;;;;;25.69;51.78;99932.59;20644712;28;20042;-73
2021/07/26 16:49:23;;;;;;;6.28;3.33;;;;;;;25.19;53.06;99946.63;20673190;28;20050;-73
2021/07/26 16:59:24;;;;;;;5.40;3.22;;;;;;;24.96;56.60;99929.78;20672493;28;20737;-73
2021/07/26 17:09:26;;;;;;;21.52;8.88;;;;;;;24.38;63.80;99963.13;20669345;28;20513;-74
2021/07/26 17:19:28;;;;;;;12.15;5.22;;;;;;;23.83;68.49;99965.63;20669556;28;20446;-73
2021/07/26 17:29:30;;;;;;;6.20;3.40;;;;;;;23.88;66.11;99962.59;20766715;28;20103;-73
2021/07/26 17:39:32;;;;;;;5.97;3.03;;;;;;;23.90;64.99;99990.06;20830314;28;20119;-73
2021/07/26 17:49:34;;;;;;;6.00;2.80;;;;;;;23.84;61.42;99993.22;20828917;28;20119;-72
2021/07/26 17:59:36;;;;;;;5.93;2.90;;;;;;;23.94;60.81;100021.78;20826567;28;20411;-73
2021/07/26 18:09:38;;;;;;;6.13;2.97;;;;;;;23.70;60.88;100037.91;20826028;28;20451;-73
2021/07/26 18:19:40;;;;;;;4.20;2.50;;;;;;;23.39;61.63;100033.16;20743356;28;20042;-72
2021/07/26 18:29:42;;;;;;;6.75;2.63;;;;;;;22.72;63.97;100050.44;20743862;28;20050;-73
2021/07/26 18:39:44;;;;;;;8.27;3.00;;;;;;;22.19;64.86;100052.44;20741386;28;20112;-72
2021/07/26 18:49:46;;;;;;;7.55;2.90;;;;;;;21.69;67.92;100059.34;20742264;28;20484;-73
2021/07/26 18:59:47;;;;;;;6.93;3.03;;;;;;;21.44;69.21;100064.63;20740793;28;20112;-73
2021/07/26 19:09:49;;;;;;;5.65;2.95;;;;;;;21.14;69.89;100075.44;20738857;28;20133;-72
2021/07/26 19:19:52;;;;;;;6.90;2.95;;;;;;;20.91;70.59;100083.09;20657765;28;20050;-73
2021/07/26 19:29:54;;;;;;;7.45;2.90;;;;;;;20.78;71.07;100097.25;20657394;28;20095;-73
2021/07/26 19:39:56;;;;;;;6.57;2.97;;;;;;;20.60;71.82;100108.13;20659304;28;20042;-73
2021/07/26 19:49:58;;;;;;;5.05;2.95;;;;;;;20.43;72.29;100127.72;20637499;28;20108;-73
2021/07/26 20:00:04;;;;;;;6.35;3.30;;;;;;;20.31;72.85;100135.56;20637774;28;21664;-73
2021/07/26 20:10:07;;;;;;;5.65;3.22;;;;;;;20.19;73.60;100156.66;20637821;28;20049;-73
2021/07/26 20:20:09;;;;;;;7.15;3.30;;;;;;;19.88;74.41;100154.06;20651711;28;20125;-73
2021/07/26 20:30:15;;;;;;;6.53;3.22;;;;;;;20.05;74.09;100151.28;20651571;28;20050;-73
2021/07/26 20:40:17;;;;;;;5.65;3.20;;;;;;;20.08;74.73;100160.91;20652716;28;20056;-73
2021/07/26 20:50:18;;;;;;;7.07;3.58;;;;;;;19.91;75.84;100169.84;20652788;28;20093;-74
2021/07/26 21:00:20;;;;;;;6.72;3.47;;;;;;;19.84;76.29;100179.13;20651763;28;20112;-74
2021/07/26 21:10:22;;;;;;;7.50;3.47;;;;;;;19.70;77.04;100180.75;20640999;28;20416;-74
2021/07/26 21:20:24;;;;;;;7.28;3.55;;;;;;;19.67;76.91;100183.59;20566286;28;20055;-73
2021/07/26 21:30:26;;;;;;;9.45;4.15;;;;;;;19.49;78.21;100189.91;20583643;28;20079;-74
2021/07/26 21:40:29;;;;;;;5.35;3.35;;;;;;;19.37;78.63;100193.25;20585454;28;20515;-73
2021/07/26 21:50:31;;;;;;;6.15;3.78;;;;;;;19.26;78.86;100208.91;20585723;28;20493;-73
2021/07/26 22:00:33;;;;;;;8.80;3.97;;;;;;;19.16;77.37;100208.53;20566965;28;20058;-73
2021/07/26 22:10:38;;;;;;;9.60;3.95;;;;;;;19.12;76.61;100221.13;20687574;23;20037;-71
2021/07/26 22:20:43;;;;;;;9.20;4.00;;;;;;;18.94;77.27;100224.78;20827810;28;20054;-71
2021/07/26 22:30:45;;;;;;;5.63;3.67;;;;;;;18.88;76.93;100235.72;20827433;28;20041;-72
2021/07/26 22:40:47;;;;;;;7.30;4.18;;;;;;;18.86;77.01;100232.28;20826801;28;20454;-72
2021/07/26 22:50:48;;;;;;;6.25;3.65;;;;;;;18.74;76.84;100239.09;20826243;28;20049;-72
2021/07/26 23:00:52;;;;;;;8.60;4.07;;;;;;;18.58;77.32;100244.28;20824321;28;20483;-71
2021/07/26 23:10:54;;;;;;;6.93;3.70;;;;;;;18.47;77.82;100225.41;20823805;28;20069;-70
2021/07/26 23:20:56;;;;;;;6.90;4.20;;;;;;;18.41;77.57;100218.63;20822851;28;20049;-72
2021/07/26 23:31:08;;;;;;;7.10;4.22;;;;;;;18.40;78.42;100234.63;20821456;28;20054;-71
2021/07/26 23:41:10;;;;;;;9.10;4.80;;;;;;;18.25;79.07;100230.06;20821577;28;20054;-70
2021/07/26 23:51:12;;;;;;;8.32;4.75;;;;;;;18.24;79.46;100231.00;20819779;28;20387;-70
